Time;durP1;ratioP1;P1;durP2;ratioP2;P2;SDS_P1;SDS_P2;PMS_P1;PMS_P2;Temp;Humidity;BMP_temperature;BMP_pressure;BME280_temperature;BME280_humidity;BME280_pressure;Samples;Min_cycle;Max_cycle;Signal;HPM_P1;HPM_P2
2022/08/18 00:01:27;;;;;;;16.40;11.30;;;27.40;61.40;;;;;;221515;1262;25483;-60
2022/08/18 00:06:34;;;;;;;14.00;11.40;;;27.40;61.30;;;;;;221684;1262;24208;-62
2022/08/18 00:11:41;;;;;;;16.60;11.60;;;27.40;61.40;;;;;;221319;1261;24263;-59
2022/08/18 00:16:45;;;;;;;14.20;11.00;;;27.30;61.30;;;;;;221076;1265;25239;-60
2022/08/18 00:21:48;;;;;;;14.10;11.30;;;27.30;61.40;;;;;;221008;1265;22726;-60
2022/08/18 00:26:54;;;;;;;14.30;10.90;;;27.30;61.40;;;;;;221192;1265;23710;-59
2022/08/18 00:31:58;;;;;;;13.60;10.70;;;27.30;61.40;;;;;;221203;1262;22703;-59
2022/08/18 00:37:00;;;;;;;14.50;11.60;;;27.30;61.50;;;;;;221195;1262;25235;-60
2022/08/18 00:42:17;;;;;;;12.70;10.50;;;27.30;61.50;;;;;;221474;1262;22537;-60
2022/08/18 00:47:32;;;;;;;15.20;10.70;;;27.30;61.60;;;;;;220986;1265;25240;-60
2022/08/18 00:53:05;;;;;;;15.10;10.80;;;27.30;61.60;;;;;;221029;1265;25065;-60
2022/08/18 00:58:14;;;;;;;12.60;10.30;;;27.30;61.90;;;;;;221489;1265;22691;-59
2022/08/18 01:03:20;;;;;;;14.90;10.80;;;27.30;61.50;;;;;;221447;1262;25215;-59
2022/08/18 01:08:27;;;;;;;12.90;10.70;;;27.20;61.50;;;;;;221416;1263;22679;-59
2022/08/18 01:13:32;;;;;;;12.30;10.40;;;27.20;61.50;;;;;;221698;1264;22566;-59
2022/08/18 01:23:56;;;;;;;11.50;10.20;;;27.20;61.50;;;;;;221568;1261;26789;-60
2022/08/18 01:29:10;;;;;;;12.90;10.20;;;27.20;61.50;;;;;;221629;1262;22540;-59
2022/08/18 01:34:13;;;;;;;11.40;9.70;;;27.20;61.50;;;;;;221466;1262;22546;-59
2022/08/18 01:39:20;;;;;;;11.70;10.00;;;27.20;61.40;;;;;;221423;1261;22651;-59
2022/08/18 01:44:44;;;;;;;13.80;10.20;;;27.10;61.70;;;;;;221493;1262;22833;-58
2022/08/18 01:49:46;;;;;;;12.50;10.80;;;27.10;61.40;;;;;;221296;1261;22557;-59
2022/08/18 01:54:50;;;;;;;12.10;10.40;;;27.10;61.50;;;;;;221543;1262;24214;-59
2022/08/18 01:59:54;;;;;;;11.60;9.60;;;27.10;61.70;;;;;;221726;1261;24296;-62
2022/08/18 02:05:02;;;;;;;11.60;9.40;;;27.10;61.50;;;;;;221719;1261;24296;-61
2022/08/18 02:10:06;;;;;;;11.70;10.00;;;27.10;61.50;;;;;;221789;1262;23943;-60
2022/08/18 02:15:13;;;;;;;11.10;9.90;;;27.10;61.80;;;;;;221559;1262;22554;-58
2022/08/18 02:20:17;;;;;;;13.20;9.80;;;27.10;61.50;;;;;;221374;1264;22532;-60
2022/08/18 02:25:20;;;;;;;13.10;10.90;;;27.10;61.40;;;;;;221671;1261;25235;-59
2022/08/18 02:30:22;;;;;;;12.40;9.70;;;27.10;61.50;;;;;;221054;1262;25292;-60
2022/08/18 02:35:26;;;;;;;10.90;9.80;;;27.00;61.40;;;;;;221225;1264;22608;-60
2022/08/18 02:40:28;;;;;;;10.90;9.70;;;27.10;61.50;;;;;;221155;1265;22534;-61
2022/08/18 02:45:31;;;;;;;13.60;9.70;;;27.00;61.50;;;;;;221215;1262;22543;-60
2022/08/18 02:50:42;;;;;;;13.30;10.30;;;27.00;61.70;;;;;;221466;1262;22685;-60
2022/08/18 02:55:45;;;;;;;11.30;9.90;;;27.00;61.50;;;;;;221318;1262;24360;-61
2022/08/18 03:00:47;;;;;;;13.70;9.80;;;27.00;61.50;;;;;;221555;1262;24223;-60
2022/08/18 03:05:49;;;;;;;12.90;10.50;;;27.00;61.50;;;;;;221523;1262;22694;-60
2022/08/18 03:10:53;;;;;;;12.30;10.00;;;27.00;61.50;;;;;;221345;1262;22650;-59
2022/08/18 03:15:56;;;;;;;12.70;9.90;;;27.00;61.60;;;;;;221705;1261;25225;-59
2022/08/18 03:21:11;;;;;;;11.90;9.80;;;27.00;61.50;;;;;;221327;1262;25223;-60
2022/08/18 03:26:16;;;;;;;13.80;10.50;;;26.90;61.20;;;;;;221453;1262;22528;-60
2022/08/18 03:31:22;;;;;;;13.20;10.70;;;26.90;61.50;;;;;;221514;1261;24071;-60
2022/08/18 03:36:30;;;;;;;12.40;10.20;;;26.90;61.90;;;;;;221634;1262;22634;-59
2022/08/18 03:41:33;;;;;;;11.90;10.30;;;26.90;61.60;;;;;;221643;1262;24399;-61
2022/08/18 03:47:01;;;;;;;14.00;10.30;;;26.90;61.60;;;;;;221162;1262;24290;-59
2022/08/18 03:52:08;;;;;;;15.40;10.90;;;26.90;61.60;;;;;;221521;1262;22548;-62
2022/08/18 03:57:11;;;;;;;11.30;10.00;;;26.90;61.60;;;;;;221538;1262;24253;-61
2022/08/18 04:02:32;;;;;;;11.80;10.60;;;26.90;61.60;;;;;;221260;1262;24271;-60
2022/08/18 04:07:34;;;;;;;14.40;10.70;;;26.90;61.60;;;;;;221275;1262;22555;-62
2022/08/18 04:12:37;;;;;;;14.90;10.80;;;26.90;61.60;;;;;;221140;1262;22690;-58
2022/08/18 04:17:39;;;;;;;12.40;11.10;;;26.90;61.60;;;;;;221128;1262;22594;-59
2022/08/18 04:23:02;;;;;;;12.90;10.30;;;26.90;61.60;;;;;;221432;1262;24062;-60
2022/08/18 04:28:04;;;;;;;11.60;10.30;;;26.90;62.00;;;;;;221212;1261;22525;-62
2022/08/18 04:33:06;;;;;;;11.90;10.70;;;26.90;61.70;;;;;;221336;1261;22698;-61
2022/08/18 04:38:09;;;;;;;11.40;10.20;;;26.90;61.70;;;;;;221215;1262;25438;-59
2022/08/18 04:43:14;;;;;;;11.80;10.60;;;26.90;62.00;;;;;;221159;1265;22627;-61
2022/08/18 04:48:16;;;;;;;14.70;11.20;;;26.90;61.70;;;;;;221134;1261;24222;-61
2022/08/18 04:58:42;;;;;;;13.60;10.60;;;26.90;61.80;;;;;;221514;1262;25358;-60
2022/08/18 05:03:45;;;;;;;11.80;10.60;;;26.90;62.10;;;;;;221206;1262;22552;-61
2022/08/18 05:08:53;;;;;;;13.70;11.40;;;26.90;61.90;;;;;;221430;1263;22551;-59
2022/08/18 05:13:56;;;;;;;15.40;11.50;;;26.80;61.80;;;;;;221274;1262;22534;-61
2022/08/18 05:19:02;;;;;;;12.50;11.20;;;26.90;62.00;;;;;;221535;1262;24090;-60
2022/08/18 05:24:08;;;;;;;13.10;10.80;;;26.90;62.30;;;;;;220974;1262;22708;-60
2022/08/18 05:29:11;;;;;;;13.90;10.80;;;26.90;62.00;;;;;;221170;1262;25237;-60
2022/08/18 05:34:21;;;;;;;13.70;11.60;;;26.90;62.00;;;;;;221664;1262;24245;-60
2022/08/18 05:39:36;;;;;;;14.00;10.80;;;26.90;62.00;;;;;;221513;1262;22534;-63
2022/08/18 05:44:45;;;;;;;14.80;11.40;;;26.90;62.10;;;;;;221511;1262;22548;-59
2022/08/18 05:49:51;;;;;;;13.70;10.90;;;26.90;62.10;;;;;;221381;1262;22537;-59
2022/08/18 06:00:28;;;;;;;14.30;12.10;;;26.90;62.20;;;;;;221500;1261;25410;-60
2022/08/18 06:05:36;;;;;;;12.40;11.10;;;26.90;62.10;;;;;;221588;1262;22524;-60
2022/08/18 06:10:46;;;;;;;14.20;11.70;;;27.00;62.10;;;;;;221686;1263;22691;-58
2022/08/18 06:15:54;;;;;;;13.70;11.00;;;27.00;62.00;;;;;;221356;1261;22793;-59
2022/08/18 06:21:28;;;;;;;14.90;12.30;;;27.00;62.20;;;;;;221460;1262;25362;-59
2022/08/18 06:26:40;;;;;;;13.80;12.40;;;27.00;62.50;;;;;;221384;1262;23908;-58
2022/08/18 06:32:05;;;;;;;13.90;12.10;;;27.00;62.40;;;;;;221643;1262;23048;-61
2022/08/18 06:37:19;;;;;;;15.40;11.40;;;27.00;62.40;;;;;;221421;1262;24848;-61
2022/08/18 06:42:30;;;;;;;17.90;12.10;;;27.10;62.30;;;;;;221347;1262;22546;-59
2022/08/18 06:47:39;;;;;;;14.60;12.30;;;27.10;63.20;;;;;;221383;1262;22641;-60
2022/08/18 06:52:54;;;;;;;13.70;12.00;;;27.10;62.50;;;;;;221527;1262;22566;-61
2022/08/18 06:58:00;;;;;;;14.90;12.30;;;27.20;62.60;;;;;;221301;1265;22695;-58
2022/08/18 07:03:02;;;;;;;15.60;13.10;;;27.20;63.00;;;;;;221041;1262;22551;-61
2022/08/18 07:08:32;;;;;;;15.20;13.10;;;27.20;62.70;;;;;;221631;1262;22562;-62
2022/08/18 07:13:42;;;;;;;13.30;12.00;;;27.20;63.00;;;;;;221373;1265;22531;-59
2022/08/18 07:18:48;;;;;;;15.80;13.70;;;27.30;63.90;;;;;;221259;1263;25364;-60
2022/08/18 07:23:58;;;;;;;14.80;12.00;;;27.30;63.50;;;;;;221583;1262;25247;-61
2022/08/18 07:29:21;;;;;;;15.00;12.20;;;27.40;62.70;;;;;;221612;1262;24325;-57
2022/08/18 07:34:32;;;;;;;16.60;13.20;;;27.40;62.80;;;;;;221532;1261;24195;-60
2022/08/18 07:39:53;;;;;;;16.10;14.10;;;27.40;63.00;;;;;;221203;1262;22694;-60
2022/08/18 07:45:25;;;;;;;17.60;14.30;;;27.40;63.30;;;;;;221516;1262;22617;-61
2022/08/18 07:50:38;;;;;;;16.10;14.10;;;27.40;63.20;;;;;;221634;1262;22644;-59
2022/08/18 07:56:20;;;;;;;16.80;13.30;;;27.40;63.60;;;;;;221415;1262;23805;-58
2022/08/18 08:01:35;;;;;;;15.60;13.90;;;27.50;63.30;;;;;;221511;1262;22739;-57
2022/08/18 08:06:47;;;;;;;17.90;13.80;;;27.50;63.30;;;;;;221504;1262;25469;-59
2022/08/18 08:12:36;;;;;;;16.70;13.20;;;27.50;62.90;;;;;;221147;1262;22698;-60
2022/08/18 08:17:52;;;;;;;14.30;12.80;;;27.50;63.40;;;;;;221391;1262;25385;-60
2022/08/18 08:23:24;;;;;;;15.30;13.70;;;27.50;63.30;;;;;;221267;1262;24205;-63
2022/08/18 08:28:39;;;;;;;15.40;13.50;;;27.50;63.40;;;;;;221580;1262;22718;-60
2022/08/18 08:33:50;;;;;;;15.10;13.30;;;27.60;63.50;;;;;;221219;1265;22543;-58
2022/08/18 08:39:04;;;;;;;13.10;11.70;;;27.60;63.50;;;;;;221302;1265;22546;-56
2022/08/18 08:44:18;;;;;;;13.90;12.50;;;27.60;63.40;;;;;;221242;1262;22553;-61
2022/08/18 08:49:23;;;;;;;16.80;13.60;;;27.60;63.30;;;;;;221151;1262;22761;-60
2022/08/18 08:54:37;;;;;;;21.20;13.70;;;27.80;64.00;;;;;;221150;1262;22701;-60
2022/08/18 08:59:42;;;;;;;18.90;13.90;;;27.80;63.70;;;;;;221494;1262;25328;-60
2022/08/18 09:05:11;;;;;;;19.80;14.10;;;27.40;65.60;;;;;;221019;1262;24251;-60
2022/08/18 09:10:51;;;;;;;19.10;13.50;;;27.20;65.80;;;;;;221240;1265;22708;-60
2022/08/18 09:16:28;;;;;;;15.80;11.70;;;27.00;65.20;;;;;;221426;1262;23926;-59
2022/08/18 09:21:40;;;;;;;15.60;12.50;;;26.90;65.20;;;;;;221638;1262;22607;-60
2022/08/18 09:26:53;;;;;;;13.10;11.60;;;26.90;64.00;;;;;;221490;1262;22525;-60
2022/08/18 09:32:19;;;;;;;14.20;12.70;;;26.80;61.20;;;;;;221239;1261;22463;-60
2022/08/18 09:37:37;;;;;;;16.60;11.90;;;26.90;61.20;;;;;;221544;1261;24408;-60
2022/08/18 09:42:50;;;;;;;16.90;12.40;;;26.90;61.70;;;;;;221595;1263;22591;-60
2022/08/18 09:47:53;;;;;;;14.10;11.90;;;26.90;62.90;;;;;;221805;1262;25341;-59
2022/08/18 09:53:18;;;;;;;13.70;11.50;;;26.90;64.60;;;;;;221235;1262;24238;-60
2022/08/18 09:58:23;;;;;;;14.20;11.70;;;26.80;64.20;;;;;;221143;1262;25242;-60
2022/08/18 10:03:27;;;;;;;16.70;11.70;;;26.70;64.00;;;;;;221681;1264;23132;-62
2022/08/18 10:08:53;;;;;;;13.10;11.00;;;26.60;62.00;;;;;;221448;1262;24208;-60
2022/08/18 10:14:12;;;;;;;15.50;11.80;;;26.70;60.00;;;;;;220995;1262;22582;-56
2022/08/18 10:19:48;;;;;;;15.60;11.90;;;26.70;60.00;;;;;;221460;1262;25297;-59
2022/08/18 10:24:58;;;;;;;13.50;11.20;;;26.80;61.10;;;;;;221527;1262;22535;-59
2022/08/18 10:30:01;;;;;;;16.00;12.00;;;26.80;61.60;;;;;;221148;1261;25396;-59
2022/08/18 10:35:36;;;;;;;14.60;11.00;;;26.80;63.40;;;;;;221505;1261;24284;-62
2022/08/18 10:40:42;;;;;;;14.40;11.40;;;26.70;63.30;;;;;;221228;1261;22538;-60
2022/08/18 10:45:56;;;;;;;13.40;12.00;;;26.60;63.40;;;;;;221367;1262;25359;-60
2022/08/18 10:51:39;;;;;;;13.00;11.00;;;26.60;61.70;;;;;;221229;1262;22543;-60
2022/08/18 10:57:19;;;;;;;15.10;11.30;;;26.50;59.90;;;;;;221500;1262;25239;-59
2022/08/18 11:02:22;;;;;;;12.70;11.10;;;26.90;59.60;;;;;;221338;1262;22532;-60
2022/08/18 11:07:28;;;;;;;13.70;10.40;;;27.00;57.30;;;;;;221195;1261;22558;-58
2022/08/18 11:12:44;;;;;;;15.30;10.50;;;26.40;54.40;;;;;;221595;1261;22821;-58
2022/08/18 11:17:55;;;;;;;12.30;11.00;;;26.60;58.20;;;;;;221285;1262;22544;-59
2022/08/18 11:23:02;;;;;;;11.40;10.10;;;26.50;61.30;;;;;;221378;1261;24236;-59
2022/08/18 11:28:18;;;;;;;11.50;10.20;;;26.50;61.60;;;;;;221356;1262;22617;-60
2022/08/18 11:33:21;;;;;;;11.90;9.60;;;26.40;57.70;;;;;;221395;1262;24686;-61
2022/08/18 11:38:54;;;;;;;11.10;9.80;;;26.60;58.30;;;;;;221656;1262;22562;-63
2022/08/18 11:43:58;;;;;;;15.50;10.60;;;26.60;59.30;;;;;;221545;1262;22544;-61
2022/08/18 11:49:16;;;;;;;12.40;11.00;;;26.60;60.40;;;;;;221055;1262;22822;-60
2022/08/18 11:54:21;;;;;;;11.40;9.80;;;26.50;62.20;;;;;;221014;1265;24457;-61
2022/08/18 11:59:27;;;;;;;10.90;9.30;;;26.40;62.10;;;;;;221563;1262;22609;-61
2022/08/18 12:05:02;;;;;;;12.00;9.80;;;26.40;60.20;;;;;;221472;1262;23264;-57
2022/08/18 12:10:26;;;;;;;11.00;9.80;;;26.50;58.20;;;;;;221000;1262;22541;-60
2022/08/18 12:16:08;;;;;;;11.80;9.00;;;26.50;58.10;;;;;;221707;1262;22832;-60
2022/08/18 12:21:12;;;;;;;10.40;9.30;;;26.60;59.00;;;;;;221688;1262;22567;-60
2022/08/18 12:26:15;;;;;;;11.60;10.20;;;26.60;59.40;;;;;;221398;1262;22831;-61
2022/08/18 12:31:38;;;;;;;11.70;10.30;;;26.70;59.60;;;;;;221381;1263;24242;-61
2022/08/18 12:36:51;;;;;;;13.30;10.50;;;27.10;58.70;;;;;;221368;1262;24300;-60
2022/08/18 12:41:54;;;;;;;11.50;10.30;;;27.40;58.40;;;;;;221406;1262;26401;-61
2022/08/18 12:47:05;;;;;;;11.60;10.20;;;27.60;58.70;;;;;;221246;1265;22629;-60
2022/08/18 12:52:12;;;;;;;10.90;9.90;;;27.60;58.60;;;;;;221319;1262;25311;-59
2022/08/18 12:57:24;;;;;;;11.60;10.00;;;27.80;58.40;;;;;;221571;1265;25236;-60
2022/08/18 13:02:47;;;;;;;10.40;9.30;;;27.80;58.40;;;;;;221500;1261;22753;-60
2022/08/18 13:07:50;;;;;;;12.30;9.90;;;27.20;56.40;;;;;;221480;1262;22564;-59
2022/08/18 13:12:53;;;;;;;11.30;10.10;;;26.70;54.40;;;;;;221596;1262;26533;-60
2022/08/18 13:17:56;;;;;;;10.70;9.40;;;26.70;59.50;;;;;;221209;1262;23021;-59
2022/08/18 13:22:58;;;;;;;13.10;9.60;;;26.60;59.60;;;;;;221114;1262;23163;-61
2022/08/18 13:28:12;;;;;;;12.10;9.70;;;26.60;59.50;;;;;;220933;1267;22537;-56
2022/08/18 13:33:21;;;;;;;;;;;26.60;57.50;;;;;;221285;1265;22681;-60
2022/08/18 13:38:44;;;;;;;11.00;9.30;;;26.60;56.60;;;;;;221152;1265;22546;-59
2022/08/18 13:43:47;;;;;;;12.60;9.90;;;26.70;57.30;;;;;;220708;1265;25352;-58
2022/08/18 13:48:50;;;;;;;10.80;9.70;;;26.80;59.20;;;;;;220926;1265;22655;-60
2022/08/18 13:53:54;;;;;;;10.80;9.70;;;26.70;61.00;;;;;;221043;1265;22598;-60
2022/08/18 13:59:17;;;;;;;10.80;9.70;;;26.60;60.80;;;;;;221239;1265;22645;-58
2022/08/18 14:04:22;;;;;;;11.10;9.10;;;26.50;61.00;;;;;;221145;1265;23036;-58
2022/08/18 14:09:29;;;;;;;12.70;9.10;;;26.40;59.50;;;;;;221089;1265;22610;-61
2022/08/18 14:14:39;;;;;;;10.70;9.50;;;26.50;56.70;;;;;;221166;1265;23805;-60
2022/08/18 14:30:26;;;;;;;14.20;9.80;;;27.60;56.90;;;;;;221076;1262;22551;-63
2022/08/18 14:35:28;;;;;;;11.70;9.90;;;27.60;57.00;;;;;;221365;1262;25237;-61
2022/08/18 14:40:51;;;;;;;12.30;10.20;;;27.70;57.10;;;;;;221368;1262;24300;-59
2022/08/18 14:45:54;;;;;;;10.40;9.40;;;27.80;57.80;;;;;;221647;1262;22707;-58
2022/08/18 14:51:00;;;;;;;18.40;11.80;;;27.80;57.40;;;;;;221453;1262;24284;-59
2022/08/18 14:56:04;;;;;;;23.00;12.50;;;27.90;59.30;;;;;;221503;1265;25333;-62
2022/08/18 15:01:10;;;;;;;17.30;11.70;;;27.90;61.90;;;;;;221437;1265;22701;-61
2022/08/18 15:06:12;;;;;;;14.80;11.30;;;27.90;60.00;;;;;;221115;1265;22553;-60
2022/08/18 15:11:25;;;;;;;15.80;10.90;;;28.00;59.90;;;;;;221465;1264;24390;-61
2022/08/18 15:16:30;;;;;;;14.60;10.30;;;28.00;59.60;;;;;;221510;1262;22533;-59
2022/08/18 15:26:59;;;;;;;14.10;10.90;;;28.00;59.60;;;;;;221098;1261;24589;-57
2022/08/18 15:32:07;;;;;;;14.40;9.90;;;28.10;59.60;;;;;;221548;1262;22576;-59
2022/08/18 15:37:12;;;;;;;12.50;10.20;;;28.10;59.80;;;;;;222362;1261;24290;-61
2022/08/18 15:42:15;;;;;;;12.60;10.20;;;28.10;59.50;;;;;;221518;1262;25246;-62
2022/08/18 15:47:18;;;;;;;14.00;10.40;;;28.10;59.50;;;;;;221499;1261;22552;-62
2022/08/18 15:52:24;;;;;;;13.00;10.20;;;28.10;59.50;;;;;;221142;1265;22812;-60
2022/08/18 15:57:29;;;;;;;13.10;10.30;;;28.10;59.50;;;;;;221480;1262;22548;-61
2022/08/18 16:02:52;;;;;;;12.90;10.50;;;28.20;59.60;;;;;;221416;1265;24295;-60
2022/08/18 16:07:56;;;;;;;13.40;9.70;;;28.20;59.50;;;;;;221286;1261;22657;-63
2022/08/18 16:13:04;;;;;;;12.80;9.40;;;28.20;59.70;;;;;;221441;1262;22557;-64
2022/08/18 16:18:07;;;;;;;11.00;9.70;;;28.20;59.40;;;;;;221567;1262;24354;-61
2022/08/18 16:23:14;;;;;;;11.30;10.10;;;28.20;59.80;;;;;;221135;1261;23567;-60
2022/08/18 16:28:16;;;;;;;11.20;10.00;;;28.20;59.70;;;;;;221577;1264;25251;-63
2022/08/18 16:33:18;;;;;;;12.30;10.20;;;28.30;59.40;;;;;;221368;1262;22529;-61
2022/08/18 16:38:22;;;;;;;11.90;9.40;;;28.30;59.40;;;;;;221720;1262;24410;-61
2022/08/18 16:43:26;;;;;;;10.90;9.80;;;28.30;59.40;;;;;;221734;1262;24389;-64
2022/08/18 16:48:32;;;;;;;10.80;9.60;;;28.30;59.50;;;;;;221460;1265;25241;-60
2022/08/18 16:53:35;;;;;;;11.20;9.30;;;28.30;59.20;;;;;;220484;1265;1272122;-65
2022/08/18 17:04:06;;;;;;;10.60;9.50;;;28.30;59.60;;;;;;221034;1265;22540;-60
2022/08/18 17:09:23;;;;;;;10.50;9.50;;;28.30;59.50;;;;;;221277;1265;24243;-61
2022/08/18 17:14:28;;;;;;;10.80;9.60;;;28.30;60.00;;;;;;221237;1265;25506;-62
2022/08/18 17:19:39;;;;;;;11.50;10.10;;;28.30;59.50;;;;;;221279;1262;22601;-61
2022/08/18 17:24:43;;;;;;;10.70;9.60;;;28.30;60.00;;;;;;221212;1265;22717;-62
2022/08/18 17:30:15;;;;;;;11.40;10.10;;;28.20;59.70;;;;;;220988;1263;22798;-60
2022/08/18 17:35:26;;;;;;;11.10;9.90;;;28.30;59.70;;;;;;221025;1265;22547;-60
2022/08/18 17:40:53;;;;;;;11.90;9.70;;;28.20;59.80;;;;;;221282;1265;24414;-60
2022/08/18 17:46:04;;;;;;;9.90;8.80;;;28.20;59.70;;;;;;221415;1265;22709;-59
2022/08/18 17:51:33;;;;;;;11.30;10.10;;;28.20;59.90;;;;;;221367;1265;25370;-64
2022/08/18 17:56:44;;;;;;;10.10;9.10;;;28.20;60.00;;;;;;221232;1262;22546;-62
2022/08/18 18:02:12;;;;;;;10.50;9.40;;;28.20;60.00;;;;;;221515;1265;24204;-61
2022/08/18 18:07:36;;;;;;;10.90;9.80;;;28.20;60.10;;;;;;220938;1262;22547;-62
2022/08/18 18:12:40;;;;;;;11.10;10.00;;;28.20;60.10;;;;;;221371;1265;25354;-62
2022/08/18 18:17:42;;;;;;;12.40;10.30;;;28.20;60.20;;;;;;221094;1262;24218;-61
2022/08/18 18:22:44;;;;;;;11.90;10.70;;;28.20;60.50;;;;;;220942;1262;25293;-61
2022/08/18 18:27:47;;;;;;;11.70;9.60;;;28.20;60.10;;;;;;221295;1262;22564;-64
2022/08/18 18:33:14;;;;;;;11.20;9.80;;;28.20;60.20;;;;;;221530;1263;24254;-62
2022/08/18 18:38:25;;;;;;;10.50;9.40;;;28.20;60.20;;;;;;221320;1262;22525;-60
2022/08/18 18:43:40;;;;;;;10.90;9.80;;;28.20;60.20;;;;;;221537;1262;22546;-64
2022/08/18 18:49:01;;;;;;;10.70;9.60;;;28.20;60.30;;;;;;221184;1262;23947;-60
2022/08/18 18:54:13;;;;;;;10.70;9.70;;;28.20;60.70;;;;;;221342;1262;22795;-61
2022/08/18 18:59:31;;;;;;;12.30;9.80;;;28.20;60.40;;;;;;221398;1261;24274;-62
2022/08/18 19:04:57;;;;;;;11.00;9.90;;;28.10;60.70;;;;;;221573;1262;25464;-61
2022/08/18 19:10:28;;;;;;;11.30;10.10;;;28.10;60.70;;;;;;221575;1262;22541;-60
2022/08/18 19:15:33;;;;;;;11.20;10.10;;;28.10;60.40;;;;;;221657;1262;25355;-61
2022/08/18 19:20:48;;;;;;;10.80;9.70;;;28.10;60.60;;;;;;221598;1262;24236;-61
2022/08/18 19:26:18;;;;;;;11.30;10.10;;;28.10;60.10;;;;;;221652;1261;22573;-63
2022/08/18 19:31:43;;;;;;;10.50;9.40;;;28.10;60.10;;;;;;221438;1262;24204;-61
2022/08/18 19:37:12;;;;;;;11.40;10.20;;;28.10;60.50;;;;;;221458;1262;24395;-61
2022/08/18 19:43:07;;;;;;;10.90;9.80;;;28.10;60.20;;;;;;221433;1261;25347;-61
2022/08/18 19:48:27;;;;;;;10.80;9.80;;;28.10;60.10;;;;;;221186;1262;22697;-63
2022/08/18 19:53:47;;;;;;;11.50;10.30;;;28.10;60.30;;;;;;221632;1262;22623;-61
2022/08/18 19:59:16;;;;;;;12.10;10.80;;;28.10;60.60;;;;;;221660;1261;24335;-59
2022/08/18 20:04:42;;;;;;;11.80;10.60;;;28.10;60.30;;;;;;221671;1261;22710;-61
2022/08/18 20:10:02;;;;;;;12.10;10.90;;;28.10;60.30;;;;;;221283;1262;22544;-61
2022/08/18 20:15:17;;;;;;;12.50;11.20;;;28.10;60.30;;;;;;221344;1262;22571;-62
2022/08/18 20:20:21;;;;;;;12.40;11.10;;;28.10;60.40;;;;;;221334;1262;26488;-61
2022/08/18 20:25:27;;;;;;;11.60;10.40;;;28.10;60.50;;;;;;221285;1261;22543;-60
2022/08/18 20:30:37;;;;;;;13.00;10.90;;;28.00;60.20;;;;;;221131;1261;24210;-61
2022/08/18 20:36:21;;;;;;;12.10;10.50;;;28.00;60.20;;;;;;221124;1262;24206;-61
2022/08/18 20:41:31;;;;;;;13.00;11.60;;;28.00;60.30;;;;;;221062;1265;25240;-61
2022/08/18 20:47:00;;;;;;;11.80;10.70;;;28.00;60.30;;;;;;221114;1262;25594;-61
2022/08/18 20:52:23;;;;;;;12.80;10.20;;;28.00;60.70;;;;;;221408;1261;22700;-60
2022/08/18 20:57:36;;;;;;;11.60;10.20;;;28.00;60.40;;;;;;221330;1262;22556;-60
2022/08/18 21:02:50;;;;;;;11.70;10.50;;;28.00;60.30;;;;;;220987;1262;26449;-59
2022/08/18 21:08:15;;;;;;;12.20;10.90;;;28.00;60.60;;;;;;221086;1265;22999;-61
2022/08/18 21:13:39;;;;;;;11.60;10.50;;;28.10;60.40;;;;;;221287;1262;24101;-60
2022/08/18 21:18:57;;;;;;;11.80;9.80;;;28.00;60.60;;;;;;221108;1265;24202;-60
2022/08/18 21:24:21;;;;;;;13.70;10.20;;;28.00;60.30;;;;;;221347;1262;22550;-62
2022/08/18 21:29:25;;;;;;;12.00;10.60;;;28.00;60.30;;;;;;221445;1262;25237;-62
2022/08/18 21:34:49;;;;;;;12.40;11.00;;;28.00;60.30;;;;;;221425;1262;23146;-61
2022/08/18 21:39:58;;;;;;;11.20;10.00;;;28.00;60.30;;;;;;221529;1262;24295;-63
2022/08/18 21:45:00;;;;;;;11.30;10.20;;;28.00;60.30;;;;;;221443;1262;24295;-62
2022/08/18 21:50:08;;;;;;;12.90;9.90;;;28.00;60.30;;;;;;221384;1262;22564;-60
2022/08/18 21:55:35;;;;;;;11.90;9.90;;;28.00;60.40;;;;;;221212;1262;22697;-62
2022/08/18 22:00:46;;;;;;;13.10;10.90;;;28.00;60.50;;;;;;221469;1262;25002;-61
2022/08/18 22:06:11;;;;;;;11.90;10.40;;;28.00;60.50;;;;;;221739;1262;22696;-62
2022/08/18 22:17:22;;;;;;;10.70;9.40;;;27.90;60.90;;;;;;221377;1263;23906;-63
2022/08/18 22:27:52;;;;;;;11.60;10.40;;;27.90;60.30;;;;;;221695;1262;22717;-62
2022/08/18 22:32:54;;;;;;;11.10;10.10;;;28.00;60.50;;;;;;221322;1262;24266;-64
2022/08/18 22:37:57;;;;;;;11.50;10.30;;;28.00;60.40;;;;;;221339;1262;23930;-63
2022/08/18 22:43:00;;;;;;;11.20;10.10;;;28.00;60.50;;;;;;221342;1262;22545;-62
2022/08/18 22:48:03;;;;;;;12.30;9.20;;;28.00;60.50;;;;;;221214;1262;24260;-61
2022/08/18 22:53:06;;;;;;;11.80;9.80;;;27.90;60.50;;;;;;221600;1261;22820;-63
2022/08/18 22:58:10;;;;;;;10.40;9.30;;;27.90;60.40;;;;;;221512;1262;24256;-62
2022/08/18 23:03:13;;;;;;;11.90;9.30;;;27.90;60.50;;;;;;221353;1262;25413;-59
2022/08/18 23:08:17;;;;;;;11.20;9.40;;;27.90;60.70;;;;;;221761;1262;22702;-61
2022/08/18 23:13:34;;;;;;;11.70;9.40;;;28.00;60.50;;;;;;221272;1265;25532;-60
2022/08/18 23:18:37;;;;;;;11.20;9.70;;;27.90;60.40;;;;;;221214;1264;25289;-64
2022/08/18 23:23:39;;;;;;;13.60;9.60;;;27.90;60.40;;;;;;221512;1265;25259;-60
2022/08/18 23:28:45;;;;;;;10.50;9.30;;;27.90;60.40;;;;;;221243;1265;24225;-62
2022/08/18 23:33:48;;;;;;;12.60;9.70;;;27.90;60.70;;;;;;221344;1262;22540;-62
2022/08/18 23:38:50;;;;;;;10.60;9.10;;;27.90;60.40;;;;;;221389;1262;25244;-61
2022/08/18 23:43:52;;;;;;;11.60;9.10;;;27.90;60.50;;;;;;221083;1265;25345;-61
2022/08/18 23:48:57;;;;;;;9.90;8.90;;;27.90;60.30;;;;;;221233;1262;24415;-61
2022/08/18 23:54:05;;;;;;;10.50;9.40;;;27.90;60.40;;;;;;221217;1262;25286;-59
2022/08/18 23:59:09;;;;;;;9.70;8.70;;;27.90;60.40;;;;;;220924;1265;24208;-65
